Strafford, New Hampshire
Current Conditions -  °F | °C
As of 11:51 AM on Saturday 25 Oct 2014 (Local Time) from KDAW Reporting Station
Clear Clear  
Wind Chill: 59°   Ceiling: Unl
Heat Index: 59°   Visibility: 10mi
Dew Point: 39°   Wind: 5mph
Humidity: 48%   Direction: NA
Pressure: 29.65"   Gusts: NA
Location:  43.33°N, 71.18°W
Report Text: KDAW 251551Z AUTO VRB04KT 10SM CLR 15/04 A2965 RMK AO2 SLP040 T01500039
Loading
Personal Weather Stations






























Interactive Weather Map
Tropical Storm Tracking
New forecast layout! Learn more

10-Day Weather Forecast

Advertisements
Track Severe Weather on mobile